createdAt,value
2024-03-05T00:00:34.714Z,58.14
2024-03-05T00:03:43.302Z,58.12
2024-03-05T00:06:49.859Z,60.04
2024-03-05T00:09:57.525Z,59.35
2024-03-05T00:13:04.609Z,59.35
2024-03-05T00:16:11.902Z,58.29
2024-03-05T00:19:19.872Z,60.30
2024-03-05T00:22:26.806Z,60.19
2024-03-05T00:25:33.552Z,59.92
2024-03-05T00:28:40.342Z,60.61
2024-03-05T00:31:47.020Z,61.13
2024-03-05T00:34:55.236Z,61.82
2024-03-05T00:38:02.087Z,62.18
2024-03-05T00:41:10.158Z,61.91
2024-03-05T00:44:18.334Z,60.61
2024-03-05T00:47:24.936Z,60.61
2024-03-05T00:50:33.046Z,59.38
2024-03-05T00:53:39.604Z,59.94
2024-03-05T00:56:46.428Z,60.30
2024-03-05T00:59:54.768Z,59.37
2024-03-05T01:03:01.744Z,58.42
2024-03-05T01:06:10.242Z,59.26
2024-03-05T01:09:20.312Z,58.67
2024-03-05T01:12:26.928Z,58.37
2024-03-05T01:15:33.689Z,58.32
2024-03-05T01:18:40.140Z,57.91
2024-03-05T01:21:48.556Z,57.33
2024-03-05T01:24:55.012Z,58.65
2024-03-05T01:28:01.575Z,57.68
2024-03-05T01:31:10.090Z,58.13
2024-03-05T01:34:17.524Z,58.56
2024-03-05T01:37:25.950Z,58.40
2024-03-05T01:40:32.593Z,58.23
2024-03-05T01:43:39.311Z,58.03
2024-03-05T01:46:46.831Z,58.19
2024-03-05T01:49:53.547Z,58.52
2024-03-05T01:53:01.892Z,57.93
2024-03-05T01:56:09.515Z,57.49
2024-03-05T01:59:17.053Z,57.58
2024-03-05T02:02:24.448Z,58.13
2024-03-05T02:05:31.789Z,57.78
2024-03-05T02:08:41.240Z,58.30
2024-03-05T02:11:53.031Z,58.09
2024-03-05T02:15:06.445Z,57.95
2024-03-05T02:18:13.531Z,58.64
2024-03-05T02:21:25.242Z,58.93
2024-03-05T02:24:32.027Z,57.98
2024-03-05T02:27:39.358Z,58.06
2024-03-05T02:30:46.324Z,59.12
2024-03-05T02:33:55.090Z,60.11
2024-03-05T02:37:04.916Z,59.42
2024-03-05T02:40:14.774Z,59.27
2024-03-05T02:43:22.385Z,58.62
2024-03-05T02:46:29.284Z,58.18
2024-03-05T02:49:37.988Z,58.30
2024-03-05T02:52:46.359Z,58.39
2024-03-05T02:55:53.105Z,58.67
2024-03-05T02:58:59.880Z,58.52
2024-03-05T03:02:06.796Z,58.26
2024-03-05T03:05:14.196Z,59.24
2024-03-05T03:08:22.129Z,59.47
2024-03-05T03:11:29.448Z,59.93
2024-03-05T03:14:35.940Z,59.32
2024-03-05T03:17:42.843Z,59.24
2024-03-05T03:20:49.146Z,59.43
2024-03-05T03:23:57.426Z,58.66
2024-03-05T03:27:04.554Z,57.57
2024-03-05T03:30:19.337Z,57.62
2024-03-05T03:33:27.699Z,57.86
2024-03-05T03:36:34.568Z,58.42
2024-03-05T03:39:44.445Z,57.64
2024-03-05T03:42:51.988Z,57.79
2024-03-05T03:45:58.707Z,57.79
2024-03-05T03:49:06.905Z,58.53
2024-03-05T03:52:13.536Z,58.47
2024-03-05T03:55:21.859Z,58.65
2024-03-05T03:58:29.078Z,58.11
2024-03-05T04:01:36.367Z,57.85
2024-03-05T04:04:43.128Z,58.04
2024-03-05T04:07:49.683Z,57.28
2024-03-05T04:10:57.618Z,57.41
2024-03-05T04:14:04.801Z,57.49
2024-03-05T04:17:11.976Z,57.83
2024-03-05T04:20:18.701Z,57.28
2024-03-05T04:23:25.727Z,58.56
2024-03-05T04:26:38.995Z,58.38
2024-03-05T04:29:48.660Z,58.04
2024-03-05T04:33:05.355Z,58.88
2024-03-05T04:36:11.873Z,58.69
2024-03-05T04:39:18.437Z,58.71
2024-03-05T04:42:26.383Z,59.43
2024-03-05T04:45:32.903Z,59.45
2024-03-05T04:48:40.600Z,59.22
2024-03-05T04:51:47.201Z,58.37
2024-03-05T04:54:55.222Z,59.60
2024-03-05T04:58:02.686Z,57.51
2024-03-05T05:01:09.685Z,58.65
2024-03-05T05:04:17.258Z,60.32
2024-03-05T05:07:25.260Z,60.39
2024-03-05T05:10:33.401Z,58.57
2024-03-05T05:13:44.449Z,59.78
2024-03-05T05:16:53.073Z,59.74
2024-03-05T05:20:01.865Z,58.80
2024-03-05T05:23:08.759Z,59.08
2024-03-05T05:26:15.173Z,59.39
2024-03-05T05:29:31.752Z,61.36
2024-03-05T05:32:47.093Z,59.26
2024-03-05T05:35:54.010Z,61.39
2024-03-05T05:39:01.507Z,61.52
2024-03-05T05:42:08.933Z,60.94
2024-03-05T05:45:16.975Z,59.18
2024-03-05T05:48:29.553Z,60.90
2024-03-05T05:51:36.698Z,59.71
2024-03-05T05:54:44.940Z,58.15
2024-03-05T05:57:53.025Z,59.01
2024-03-05T06:01:00.821Z,59.38
2024-03-05T06:04:07.677Z,58.66
2024-03-05T06:07:14.337Z,58.44
2024-03-05T06:10:21.291Z,61.24
2024-03-05T06:13:28.212Z,58.87
2024-03-05T06:16:36.455Z,59.75
2024-03-05T06:19:43.231Z,57.36
2024-03-05T06:22:50.018Z,53.10
2024-03-05T06:25:56.883Z,54.05
2024-03-05T06:29:05.638Z,54.92
2024-03-05T06:32:14.087Z,53.97
2024-03-05T06:35:24.410Z,54.79
2024-03-05T06:38:30.975Z,54.40
2024-03-05T06:41:38.669Z,54.83
2024-03-05T06:44:48.882Z,56.83
2024-03-05T06:48:10.429Z,56.73
2024-03-05T06:51:33.020Z,58.45
2024-03-05T06:54:57.134Z,59.17
2024-03-05T06:58:05.613Z,59.00
2024-03-05T07:01:13.034Z,59.10
2024-03-05T07:04:21.298Z,59.39
2024-03-05T07:07:27.572Z,59.99
2024-03-05T07:10:35.262Z,58.01
2024-03-05T07:13:45.608Z,58.39
2024-03-05T07:16:53.510Z,58.70
2024-03-05T07:20:04.485Z,57.95
2024-03-05T07:23:10.955Z,57.71
2024-03-05T07:26:17.729Z,56.97
2024-03-05T07:29:24.337Z,57.01
2024-03-05T07:32:30.973Z,58.69
2024-03-05T07:35:38.909Z,57.73
2024-03-05T07:38:45.263Z,59.06
2024-03-05T07:41:51.652Z,60.83
2024-03-05T07:44:58.229Z,63.65
2024-03-05T07:48:04.513Z,60.73
2024-03-05T07:51:13.077Z,59.13
2024-03-05T07:54:22.097Z,58.49
2024-03-05T07:57:28.605Z,58.14
2024-03-05T08:00:36.763Z,56.25
2024-03-05T08:04:01.756Z,57.51
2024-03-05T08:07:12.404Z,60.83
2024-03-05T08:10:19.539Z,60.70
2024-03-05T08:13:25.808Z,59.20
2024-03-05T08:16:35.614Z,58.86
2024-03-05T08:19:43.039Z,57.18
2024-03-05T08:22:51.281Z,58.90
2024-03-05T08:25:58.154Z,61.41
2024-03-05T08:29:05.520Z,58.25
2024-03-05T08:32:12.824Z,55.76
2024-03-05T08:35:19.331Z,56.77
2024-03-05T08:38:28.301Z,57.01
2024-03-05T08:41:36.276Z,56.57
2024-03-05T08:44:42.760Z,57.05
2024-03-05T08:47:50.075Z,56.08
2024-03-05T08:50:56.334Z,56.54
2024-03-05T08:54:04.295Z,57.85
2024-03-05T08:57:11.144Z,56.06
2024-03-05T09:00:32.268Z,58.58
2024-03-05T09:03:45.550Z,56.63
2024-03-05T09:06:54.553Z,54.73
2024-03-05T09:10:02.659Z,56.33
2024-03-05T09:13:09.805Z,54.94
2024-03-05T09:16:16.413Z,55.01
2024-03-05T09:19:24.250Z,55.98
2024-03-05T09:22:30.799Z,54.38
2024-03-05T09:25:40.205Z,53.20
2024-03-05T09:28:46.691Z,54.12
2024-03-05T09:31:53.061Z,53.49
2024-03-05T09:34:59.738Z,54.45
2024-03-05T09:38:06.587Z,57.64
2024-03-05T09:41:15.146Z,57.15
2024-03-05T09:44:22.758Z,55.21
2024-03-05T09:47:31.605Z,56.69
2024-03-05T09:50:39.303Z,56.87
2024-03-05T09:53:45.469Z,56.49
2024-03-05T09:56:56.525Z,55.73
2024-03-05T10:00:05.404Z,55.24
2024-03-05T10:03:12.400Z,54.91
2024-03-05T10:06:18.637Z,54.77
2024-03-05T10:09:26.828Z,54.63
2024-03-05T10:12:34.505Z,55.39
2024-03-05T10:15:44.403Z,55.25
2024-03-05T10:18:51.280Z,54.65
2024-03-05T10:22:12.149Z,51.79
2024-03-05T10:25:19.411Z,56.04
2024-03-05T10:28:32.260Z,55.08
2024-03-05T10:31:41.065Z,55.61
2024-03-05T10:34:47.716Z,56.33
2024-03-05T10:37:59.223Z,57.29
2024-03-05T10:41:08.994Z,55.66
2024-03-05T10:44:18.388Z,53.51
2024-03-05T10:47:28.256Z,52.07
2024-03-05T10:50:38.383Z,52.80
2024-03-05T10:53:45.296Z,53.46
2024-03-05T10:56:53.518Z,55.06
2024-03-05T11:00:00.545Z,55.94
2024-03-05T11:03:09.437Z,55.47
2024-03-05T11:06:18.399Z,54.19
2024-03-05T11:09:25.497Z,53.50
2024-03-05T11:12:32.302Z,53.28
2024-03-05T11:15:41.387Z,53.98
2024-03-05T11:18:49.204Z,54.12
2024-03-05T11:21:56.038Z,54.33
2024-03-05T11:25:04.209Z,52.77
2024-03-05T11:28:12.324Z,54.52
2024-03-05T11:31:22.584Z,53.78
2024-03-05T11:34:30.734Z,52.39
2024-03-05T11:37:49.110Z,53.02
2024-03-05T11:41:00.821Z,52.09
2024-03-05T11:44:08.432Z,53.03
2024-03-05T11:47:21.730Z,52.38
2024-03-05T11:50:27.899Z,52.77
2024-03-05T11:53:38.190Z,53.31
2024-03-05T11:56:47.013Z,51.88
2024-03-05T11:59:53.667Z,52.31
2024-03-05T12:03:01.880Z,52.93
2024-03-05T12:06:08.887Z,52.43
2024-03-05T12:09:20.180Z,52.14
2024-03-05T12:12:26.726Z,51.64
2024-03-05T12:15:34.669Z,49.87
2024-03-05T12:18:42.390Z,50.55
2024-03-05T12:21:50.007Z,51.33
2024-03-05T12:24:56.730Z,51.14
2024-03-05T12:28:06.094Z,50.52
2024-03-05T12:31:13.076Z,51.08
2024-03-05T12:34:21.829Z,51.52
2024-03-05T12:37:30.992Z,51.88
2024-03-05T12:40:37.767Z,50.55
2024-03-05T12:43:53.352Z,50.70
2024-03-05T12:47:09.455Z,50.96
2024-03-05T12:50:20.731Z,51.33
2024-03-05T12:53:27.549Z,49.57
2024-03-05T12:56:43.066Z,49.62
2024-03-05T12:59:49.394Z,51.02
2024-03-05T13:02:57.393Z,49.77
2024-03-05T13:06:05.749Z,49.18
2024-03-05T13:09:12.349Z,50.34
2024-03-05T13:12:20.275Z,50.16
2024-03-05T13:15:26.950Z,49.99
2024-03-05T13:18:33.245Z,49.53
2024-03-05T13:21:41.684Z,50.80
2024-03-05T13:24:48.759Z,51.87
2024-03-05T13:27:55.980Z,51.40
2024-03-05T13:31:04.558Z,49.38
2024-03-05T13:34:11.340Z,48.85
2024-03-05T13:37:22.818Z,49.06
2024-03-05T13:40:29.734Z,49.33
2024-03-05T13:43:36.729Z,50.50
2024-03-05T13:46:43.189Z,49.94
2024-03-05T13:49:49.845Z,49.90
2024-03-05T13:52:57.989Z,50.45
2024-03-05T13:56:06.135Z,50.36
2024-03-05T13:59:13.037Z,50.91
2024-03-05T14:02:19.873Z,50.29
2024-03-05T14:05:26.703Z,50.25
2024-03-05T14:08:34.691Z,50.19
2024-03-05T14:11:42.230Z,50.15
2024-03-05T14:14:48.566Z,50.30
2024-03-05T14:17:55.320Z,49.47
2024-03-05T14:21:02.656Z,49.81
2024-03-05T14:24:14.107Z,49.57
2024-03-05T14:27:20.924Z,50.20
2024-03-05T14:30:27.683Z,49.78
2024-03-05T14:33:34.467Z,48.86
2024-03-05T14:36:41.310Z,48.71
2024-03-05T14:39:50.039Z,47.44
2024-03-05T14:42:57.030Z,48.48
2024-03-05T14:46:03.906Z,49.12
2024-03-05T14:49:12.468Z,49.15
2024-03-05T14:52:19.309Z,48.27
2024-03-05T14:55:28.554Z,48.09
2024-03-05T14:58:34.999Z,49.26
2024-03-05T15:01:41.889Z,49.66
2024-03-05T15:04:48.550Z,50.81
2024-03-05T15:07:55.717Z,49.89
2024-03-05T15:11:03.776Z,50.23
2024-03-05T15:14:10.531Z,50.46
2024-03-05T15:17:17.591Z,48.40
2024-03-05T15:20:25.194Z,50.15
2024-03-05T15:23:31.985Z,49.29
2024-03-05T15:26:42.671Z,49.44
2024-03-05T15:29:51.962Z,49.38
2024-03-05T15:32:58.942Z,49.35
2024-03-05T15:36:06.629Z,48.65
2024-03-05T15:39:16.117Z,49.47
2024-03-05T15:42:24.159Z,49.54
2024-03-05T15:45:31.983Z,49.06
2024-03-05T15:48:38.789Z,49.56
2024-03-05T15:51:45.355Z,49.62
2024-03-05T15:54:51.719Z,50.86
2024-03-05T15:58:09.749Z,49.43
2024-03-05T16:01:18.070Z,51.41
2024-03-05T16:04:48.605Z,51.04
2024-03-05T16:07:50.885Z,50.82
2024-03-05T16:10:57.547Z,50.62
2024-03-05T16:14:06.811Z,52.69
2024-03-05T16:17:14.385Z,51.74
2024-03-05T16:20:21.121Z,52.82
2024-03-05T16:23:27.754Z,52.10
2024-03-05T16:26:35.043Z,52.59
2024-03-05T16:29:42.820Z,50.91
2024-03-05T16:32:49.220Z,52.01
2024-03-05T16:35:56.044Z,52.55
2024-03-05T16:39:02.892Z,53.13
2024-03-05T16:42:12.391Z,52.65
2024-03-05T16:45:20.434Z,54.20
2024-03-05T16:48:26.621Z,53.15
2024-03-05T16:51:33.044Z,52.32
2024-03-05T16:54:39.586Z,51.05
2024-03-05T16:57:47.090Z,50.26
2024-03-05T17:00:58.037Z,50.97
2024-03-05T17:04:08.915Z,51.78
2024-03-05T17:07:15.175Z,50.19
2024-03-05T17:10:24.934Z,50.31
2024-03-05T17:13:37.315Z,49.61
2024-03-05T17:16:47.123Z,50.42
2024-03-05T17:19:57.681Z,52.28
2024-03-05T17:23:04.667Z,50.82
2024-03-05T17:26:13.473Z,50.83
2024-03-05T17:29:19.866Z,51.24
2024-03-05T17:32:32.695Z,51.19
2024-03-05T17:35:39.339Z,50.42
2024-03-05T17:38:46.029Z,50.65
2024-03-05T17:41:53.108Z,51.15
2024-03-05T17:44:59.912Z,51.83
2024-03-05T17:48:08.753Z,51.77
2024-03-05T17:51:15.304Z,52.96
2024-03-05T17:54:22.558Z,52.76
2024-03-05T17:57:32.722Z,51.14
2024-03-05T18:00:46.377Z,51.78
2024-03-05T18:03:54.872Z,51.24
2024-03-05T18:07:03.142Z,51.37
2024-03-05T18:10:10.376Z,53.73
2024-03-05T18:13:18.724Z,53.07
2024-03-05T18:16:26.225Z,53.38
2024-03-05T18:19:34.914Z,53.73
2024-03-05T18:22:41.816Z,54.88
2024-03-05T18:25:49.737Z,54.93
2024-03-05T18:28:56.390Z,53.84
2024-03-05T18:32:05.640Z,54.56
2024-03-05T18:35:13.582Z,54.98
2024-03-05T18:38:27.839Z,55.44
2024-03-05T18:41:36.169Z,55.09
2024-03-05T18:44:42.689Z,54.81
2024-03-05T18:47:59.234Z,54.32
2024-03-05T18:51:15.296Z,54.43
2024-03-05T18:54:23.604Z,56.08
2024-03-05T18:57:30.620Z,55.36
2024-03-05T19:00:38.940Z,54.62
2024-03-05T19:03:46.983Z,54.53
2024-03-05T19:06:54.922Z,54.62
2024-03-05T19:10:01.232Z,53.31
2024-03-05T19:13:08.137Z,54.19
2024-03-05T19:16:15.590Z,54.54
2024-03-05T19:19:22.336Z,55.32
2024-03-05T19:22:30.864Z,54.85
2024-03-05T19:25:37.183Z,54.23
2024-03-05T19:28:44.672Z,56.04
2024-03-05T19:31:51.201Z,55.77
2024-03-05T19:34:58.222Z,55.51
2024-03-05T19:38:07.276Z,55.33
2024-03-05T19:41:15.215Z,56.00
2024-03-05T19:44:22.646Z,54.19
2024-03-05T19:47:34.190Z,55.33
2024-03-05T19:50:40.660Z,54.89
2024-03-05T19:53:49.593Z,54.18
2024-03-05T19:56:57.169Z,53.23
2024-03-05T20:00:13.509Z,51.95
2024-03-05T20:03:20.536Z,51.73
2024-03-05T20:06:27.334Z,53.72
2024-03-05T20:09:36.288Z,53.62
2024-03-05T20:12:42.942Z,54.18
2024-03-05T20:15:49.828Z,54.29
2024-03-05T20:18:56.542Z,53.53
2024-03-05T20:22:02.877Z,52.24
2024-03-05T20:25:11.011Z,51.76
2024-03-05T20:28:18.169Z,53.34
2024-03-05T20:31:24.944Z,53.44
2024-03-05T20:34:32.992Z,52.81
2024-03-05T20:37:39.767Z,56.51
2024-03-05T20:40:47.802Z,53.32
2024-03-05T20:43:54.951Z,53.28
2024-03-05T20:47:01.804Z,54.53
2024-03-05T20:50:10.775Z,54.43
2024-03-05T20:53:17.629Z,53.12
2024-03-05T20:56:26.127Z,54.67
2024-03-05T20:59:34.718Z,53.39
2024-03-05T21:02:42.480Z,53.93
2024-03-05T21:05:49.152Z,54.25
2024-03-05T21:08:55.609Z,55.45
2024-03-05T21:12:04.888Z,54.75
2024-03-05T21:15:13.923Z,54.89
2024-03-05T21:18:21.443Z,55.96
2024-03-05T21:21:28.075Z,55.90
2024-03-05T21:24:37.204Z,54.90
2024-03-05T21:27:46.805Z,55.01
2024-03-05T21:30:53.644Z,57.07
2024-03-05T21:34:00.025Z,55.32
2024-03-05T21:37:07.600Z,55.65
2024-03-05T21:40:15.176Z,56.17
2024-03-05T21:43:23.685Z,56.22
2024-03-05T21:46:30.309Z,55.53
2024-03-05T21:49:37.176Z,55.98
2024-03-05T21:52:47.474Z,57.29
2024-03-05T21:55:54.458Z,58.50
2024-03-05T21:59:04.743Z,58.67
2024-03-05T22:02:10.982Z,58.31
2024-03-05T22:05:17.550Z,59.24
2024-03-05T22:08:23.823Z,62.39
2024-03-05T22:11:30.560Z,61.52
2024-03-05T22:14:38.368Z,58.15
2024-03-05T22:17:45.129Z,60.09
2024-03-05T22:20:54.669Z,64.16
2024-03-05T22:24:01.592Z,61.48
2024-03-05T22:27:07.841Z,58.11
2024-03-05T22:30:16.346Z,60.46
2024-03-05T22:33:23.836Z,61.87
2024-03-05T22:36:30.487Z,62.19
2024-03-05T22:39:38.142Z,59.45
2024-03-05T22:42:46.265Z,61.37
2024-03-05T22:45:54.796Z,65.17
2024-03-05T22:49:02.364Z,61.51
2024-03-05T22:52:08.524Z,59.79
2024-03-05T22:55:14.747Z,60.74
2024-03-05T22:58:21.355Z,60.74
2024-03-05T23:01:29.410Z,60.38
2024-03-05T23:04:36.140Z,63.57
2024-03-05T23:07:42.331Z,62.36
2024-03-05T23:10:49.805Z,64.99
2024-03-05T23:13:57.110Z,67.05
2024-03-05T23:17:05.015Z,68.73
2024-03-05T23:20:12.946Z,65.36
2024-03-05T23:23:19.722Z,65.57
2024-03-05T23:26:26.482Z,65.67
2024-03-05T23:29:32.843Z,60.97
2024-03-05T23:32:41.081Z,60.15
2024-03-05T23:35:48.914Z,60.33
2024-03-05T23:38:55.678Z,60.77
2024-03-05T23:42:02.217Z,62.48
2024-03-05T23:45:10.703Z,63.78
2024-03-05T23:48:18.790Z,64.14
2024-03-05T23:51:26.664Z,65.05
2024-03-05T23:54:34.159Z,65.41
2024-03-05T23:57:40.811Z,64.81
